Time;durP1;ratioP1;P1;durP2;ratioP2;P2;SDS_P1;SDS_P2;PMS_P1;PMS_P2;Temp;Humidity;BMP_temperature;BMP_pressure;BME280_temperature;BME280_humidity;BME280_pressure;Samples;Min_cycle;Max_cycle;Signal;HPM_P1;HPM_P2
2023/12/15 00:01:30;;;;;;;9.32;4.90;;;;;;;4.85;100.00;102637.38;5013296;28;20033;-84
2023/12/15 00:04:08;;;;;;;11.88;5.78;;;;;;;4.85;100.00;102640.84;5012357;28;20529;-84
2023/12/15 00:06:42;;;;;;;11.80;5.10;;;;;;;5.00;100.00;102671.41;5012563;28;20096;-83
2023/12/15 00:09:07;;;;;;;10.00;5.15;;;;;;;4.93;100.00;102662.59;5011551;28;20022;-84
2023/12/15 00:11:37;;;;;;;9.23;4.50;;;;;;;4.97;100.00;102663.56;5012403;28;20381;-83
2023/12/15 00:14:03;;;;;;;7.65;4.28;;;;;;;4.98;100.00;102672.19;5011501;28;20045;-83
2023/12/15 00:16:28;;;;;;;8.87;4.80;;;;;;;4.94;100.00;102661.75;5011989;28;20382;-84
2023/12/15 00:18:53;;;;;;;8.30;4.37;;;;;;;4.93;100.00;102672.00;5012508;28;20014;-84
2023/12/15 00:21:22;;;;;;;6.70;4.00;;;;;;;5.04;100.00;102692.97;5013201;28;20113;-84
2023/12/15 00:23:48;;;;;;;9.13;4.57;;;;;;;5.04;100.00;102692.97;5011588;28;20034;-84
2023/12/15 00:26:13;;;;;;;9.53;5.13;;;;;;;5.04;100.00;102700.69;5012863;28;20041;-84
2023/12/15 00:28:38;;;;;;;14.02;6.22;;;;;;;4.89;100.00;102663.31;5007673;28;20457;-84
2023/12/15 00:31:04;;;;;;;12.43;5.70;;;;;;;5.02;100.00;102682.66;5015567;28;20045;-84
2023/12/15 00:33:29;;;;;;;13.00;6.07;;;;;;;5.04;100.00;102691.31;5016158;28;20036;-84
2023/12/15 00:35:55;;;;;;;13.27;6.00;;;;;;;5.05;100.00;102687.91;5016251;28;20050;-84
2023/12/15 00:38:20;;;;;;;11.93;5.97;;;;;;;4.92;100.00;102668.53;5015503;28;20030;-84
2023/12/15 00:40:45;;;;;;;11.40;5.85;;;;;;;5.04;100.00;102682.69;5015539;28;20052;-84
2023/12/15 00:43:11;;;;;;;12.95;5.68;;;;;;;5.06;100.00;102693.91;5015829;28;20037;-84
2023/12/15 00:45:36;;;;;;;13.98;6.00;;;;;;;5.00;100.00;102676.56;5014805;28;20040;-84
2023/12/15 00:48:04;;;;;;;10.68;5.53;;;;;;;5.06;100.00;102693.91;5015683;28;20032;-84
2023/12/15 00:50:30;;;;;;;10.35;5.00;;;;;;;5.08;100.00;102694.88;5015663;28;20092;-84
2023/12/15 00:52:57;;;;;;;9.67;4.70;;;;;;;5.06;100.00;102691.34;5014672;28;20026;-83
2023/12/15 00:55:22;;;;;;;;;;;;;;;5.09;100.00;102694.03;5015734;28;20029;-84
2023/12/15 00:57:47;;;;;;;9.93;4.93;;;;;;;5.06;100.00;102691.34;5015423;28;19936;-84
2023/12/15 01:00:13;;;;;;;12.57;6.03;;;;;;;5.08;100.00;102695.72;5015770;28;20030;-84
2023/12/15 01:02:38;;;;;;;12.98;5.70;;;;;;;5.08;100.00;102705.16;5015828;28;20030;-84
2023/12/15 01:05:04;;;;;;;13.40;6.10;;;;;;;5.09;100.00;102707.78;5016210;28;20026;-84
2023/12/15 01:07:32;;;;;;;13.27;5.88;;;;;;;5.12;100.00;102719.00;5014924;28;20030;-84
2023/12/15 01:09:57;;;;;;;13.90;5.82;;;;;;;5.10;100.00;102708.66;5015575;28;20029;-84
2023/12/15 01:12:22;;;;;;;11.13;5.73;;;;;;;5.12;100.00;102709.63;5014891;28;20494;-84
2023/12/15 01:14:48;;;;;;;12.40;5.55;;;;;;;5.14;100.00;102714.81;5016100;28;20466;-83
2023/12/15 01:17:13;;;;;;;11.27;5.10;;;;;;;5.12;100.00;102713.88;5015113;28;20028;-83
2023/12/15 01:19:38;;;;;;;12.40;6.00;;;;;;;5.14;100.00;102713.09;5014209;28;20030;-84
2023/12/15 01:22:04;;;;;;;14.55;6.45;;;;;;;5.16;100.00;102719.19;5014982;28;20068;-83
2023/12/15 01:24:29;;;;;;;12.15;5.78;;;;;;;5.15;100.00;102720.00;5015021;28;20458;-84
2023/12/15 01:26:54;;;;;;;11.87;5.63;;;;;;;5.07;100.00;102714.56;5011550;28;20038;-84
2023/12/15 01:29:28;;;;;;;12.93;5.95;;;;;;;5.06;100.00;102712.84;5015590;28;20033;-84
2023/12/15 01:31:54;;;;;;;12.68;5.80;;;;;;;5.19;100.00;102729.59;5010040;23;20112;-84
2023/12/15 01:34:19;;;;;;;14.77;6.53;;;;;;;5.19;100.00;102739.91;4994619;28;20022;-84
2023/12/15 01:36:47;;;;;;;14.87;6.80;;;;;;;5.11;100.00;102728.44;4994941;28;20030;-84
2023/12/15 01:39:12;;;;;;;13.30;6.10;;;;;;;5.22;100.00;102752.91;4995047;28;20069;-83
2023/12/15 01:41:38;;;;;;;11.63;5.30;;;;;;;5.23;100.00;102752.06;4994236;28;20482;-84
2023/12/15 01:44:03;;;;;;;9.95;4.78;;;;;;;5.22;100.00;102749.44;4995232;28;20022;-84
2023/12/15 01:46:28;;;;;;;10.17;4.93;;;;;;;5.23;100.00;102752.06;4995526;28;20490;-84
2023/12/15 01:48:57;;;;;;;11.10;4.97;;;;;;;5.23;100.00;102740.88;4994345;28;20108;-84
2023/12/15 01:51:22;;;;;;;14.20;5.88;;;;;;;5.24;100.00;102740.94;4995902;28;20018;-84
2023/12/15 01:53:47;;;;;;;10.53;5.10;;;;;;;5.24;100.00;102753.81;4995515;28;20038;-84
2023/12/15 01:56:13;;;;;;;14.20;6.67;;;;;;;5.25;100.00;102750.41;4994731;28;20037;-84
2023/12/15 01:58:38;;;;;;;13.93;6.07;;;;;;;5.24;100.00;102758.09;4995243;28;20026;-84
2023/12/15 02:01:04;;;;;;;14.32;6.63;;;;;;;5.28;100.00;102759.97;4995646;28;20427;-84
2023/12/15 02:03:33;;;;;;;19.02;8.70;;;;;;;5.27;100.00;102758.22;4994354;28;20038;-84
2023/12/15 02:05:59;;;;;;;17.30;8.23;;;;;;;5.27;100.00;102763.34;4994758;28;20029;-84
2023/12/15 02:08:24;;;;;;;15.03;6.90;;;;;;;5.28;100.00;102770.28;4994757;28;20438;-84
2023/12/15 02:10:55;;;;;;;13.48;5.93;;;;;;;5.31;100.00;102783.22;4993704;28;20462;-84
2023/12/15 02:13:23;;;;;;;13.45;6.00;;;;;;;5.21;100.00;102757.97;4995144;28;20475;-84
2023/12/15 02:15:49;;;;;;;13.35;5.65;;;;;;;5.34;100.00;102774.78;4994304;28;20019;-84
2023/12/15 02:18:23;;;;;;;10.30;5.23;;;;;;;5.33;100.00;102768.72;4994875;28;20082;-84
2023/12/15 02:20:48;;;;;;;14.25;6.32;;;;;;;5.24;100.00;102758.94;4994785;28;20030;-84
2023/12/15 02:23:19;;;;;;;13.87;6.47;;;;;;;5.25;100.00;102759.84;4994176;28;20026;-84
2023/12/15 02:25:51;;;;;;;13.95;6.30;;;;;;;5.22;100.00;102758.03;4993021;28;20026;-84
2023/12/15 02:28:16;;;;;;;13.55;5.82;;;;;;;5.26;100.00;102764.19;4994587;28;20446;-85
2023/12/15 02:30:51;;;;;;;10.63;5.17;;;;;;;5.37;100.00;102786.06;4993612;28;20065;-84
2023/12/15 02:33:16;;;;;;;8.35;4.50;;;;;;;5.31;100.00;102783.22;4994552;28;20022;-84
2023/12/15 02:35:56;;;;;;;8.73;4.20;;;;;;;5.31;100.00;102790.09;4994365;28;20379;-84
2023/12/15 02:38:22;;;;;;;8.55;4.25;;;;;;;5.34;100.00;102787.66;4993845;28;20069;-85
2023/12/15 02:40:50;;;;;;;8.90;4.50;;;;;;;5.31;100.00;102790.09;4993979;28;20479;-85
2023/12/15 02:43:24;;;;;;;9.63;4.65;;;;;;;5.36;100.00;102796.28;4994582;28;20053;-84
2023/12/15 02:46:01;;;;;;;12.13;5.30;;;;;;;5.39;100.00;102802.44;4993765;28;20077;-84
2023/12/15 02:48:35;;;;;;;11.82;5.25;;;;;;;5.35;100.00;102794.53;4994640;28;20110;-84
2023/12/15 02:51:01;;;;;;;12.48;5.93;;;;;;;5.46;100.00;102810.38;4993564;28;20105;-84
2023/12/15 02:53:32;;;;;;;12.40;5.63;;;;;;;5.46;100.00;102820.69;4994555;28;20085;-84
2023/12/15 02:56:00;;;;;;;13.30;5.82;;;;;;;5.33;100.00;102798.75;4990637;28;20078;-84
2023/12/15 02:58:32;;;;;;;10.90;5.10;;;;;;;5.39;100.00;102814.44;4973888;28;20085;-84
2023/12/15 03:01:09;;;;;;;9.65;4.80;;;;;;;5.39;100.00;102828.19;4974898;28;20078;-84
2023/12/15 03:03:49;;;;;;;9.00;4.68;;;;;;;5.38;100.00;102821.28;4974184;28;20031;-84
2023/12/15 03:06:30;;;;;;;9.48;4.28;;;;;;;5.43;100.00;102829.19;4973069;28;20534;-84
2023/12/15 03:08:55;;;;;;;8.70;4.18;;;;;;;5.53;100.00;102840.69;4973870;28;20476;-84
2023/12/15 03:11:37;;;;;;;9.27;4.50;;;;;;;5.44;100.00;102832.63;4974082;28;20026;-84
2023/12/15 03:14:05;;;;;;;8.27;4.10;;;;;;;5.53;100.00;102840.69;4973506;28;20545;-84
2023/12/15 03:16:55;;;;;;;9.50;4.15;;;;;;;5.55;100.00;102839.97;4974260;28;20114;-85
2023/12/15 03:19:21;;;;;;;11.63;5.10;;;;;;;5.50;100.00;102836.31;4973825;28;20344;-84
2023/12/15 03:21:46;;;;;;;14.13;6.30;;;;;;;5.50;100.00;102841.47;4974133;28;20027;-84
2023/12/15 03:24:11;;;;;;;14.73;6.53;;;;;;;5.45;100.00;102843.00;4974199;28;20558;-84
2023/12/15 03:26:49;;;;;;;12.83;5.73;;;;;;;5.45;100.00;102848.16;4973332;28;20026;-84
2023/12/15 03:29:26;;;;;;;13.88;6.15;;;;;;;5.47;100.00;102858.50;4974177;28;20027;-84
2023/12/15 03:31:57;;;;;;;13.27;5.80;;;;;;;5.44;100.00;102853.22;4973177;28;20042;-84
2023/12/15 03:34:32;;;;;;;13.43;5.88;;;;;;;5.57;100.00;102882.06;4972844;28;20026;-84
2023/12/15 03:37:12;;;;;;;12.27;5.13;;;;;;;5.41;100.00;102860.00;4984179;28;20026;-85
2023/12/15 03:39:52;;;;;;;9.77;4.47;;;;;;;5.51;100.00;102871.56;4993013;28;20069;-85
2023/12/15 03:42:30;;;;;;;9.43;4.30;;;;;;;5.63;100.00;102893.44;4992180;28;20034;-84
2023/12/15 03:45:04;;;;;;;7.80;3.97;;;;;;;5.61;100.00;102888.25;4993153;28;20022;-85
2023/12/15 03:47:35;;;;;;;8.20;4.22;;;;;;;5.64;100.00;102884.91;4992528;28;20395;-85
2023/12/15 03:50:09;;;;;;;10.52;4.53;;;;;;;5.55;100.00;102873.44;4993276;28;20122;-85
2023/12/15 03:52:44;;;;;;;10.27;4.63;;;;;;;5.61;100.00;102877.06;4993173;28;20062;-85
2023/12/15 03:55:21;;;;;;;11.13;4.80;;;;;;;5.60;100.00;102883.91;4992659;28;20360;-85
2023/12/15 03:57:53;;;;;;;10.43;4.68;;;;;;;5.56;100.00;102879.47;4993012;28;20050;-85
2023/12/15 04:00:28;;;;;;;12.45;5.00;;;;;;;5.62;100.00;102895.16;4993023;28;20022;-85
2023/12/15 04:03:08;;;;;;;11.43;4.78;;;;;;;5.60;100.00;102891.66;4992309;28;20035;-85
2023/12/15 04:05:49;;;;;;;9.93;4.60;;;;;;;5.64;100.00;102885.78;4977254;28;20054;-85
2023/12/15 04:08:14;;;;;;;11.80;5.00;;;;;;;5.67;100.00;102900.50;4976052;28;20126;-85
2023/12/15 04:10:40;;;;;;;9.87;4.23;;;;;;;5.71;100.00;102904.91;4977196;28;20110;-85
2023/12/15 04:13:06;;;;;;;8.68;3.97;;;;;;;5.72;100.00;102911.84;4976922;28;20115;-85
2023/12/15 04:15:34;;;;;;;10.20;4.10;;;;;;;5.72;100.00;102910.16;4976562;28;20543;-85
2023/12/15 04:18:18;;;;;;;11.38;4.57;;;;;;;5.71;100.00;102902.34;4977420;28;20424;-85
2023/12/15 04:20:43;;;;;;;19.63;7.30;;;;;;;5.64;100.00;102893.50;4977037;28;20027;-85
2023/12/15 04:23:14;;;;;;;16.90;6.63;;;;;;;5.74;100.00;102914.50;4976515;28;20023;-85
2023/12/15 04:25:52;;;;;;;19.52;7.32;;;;;;;5.65;100.00;102903.00;4976748;28;20024;-85
2023/12/15 04:28:29;;;;;;;15.20;6.13;;;;;;;5.72;100.00;102920.47;4977120;28;20019;-84
2023/12/15 04:30:55;;;;;;;14.73;6.32;;;;;;;5.67;100.00;102905.66;4975673;28;20554;-85
2023/12/15 04:33:33;;;;;;;14.53;5.47;;;;;;;5.67;100.00;102906.50;4977203;28;20023;-85
2023/12/15 04:36:05;;;;;;;11.95;5.03;;;;;;;5.70;100.00;102916.94;4977037;28;20522;-85
2023/12/15 04:38:30;;;;;;;13.40;5.22;;;;;;;5.81;100.00;102942.25;4976127;28;20039;-85
2023/12/15 04:40:56;;;;;;;15.53;5.80;;;;;;;5.75;100.00;102940.31;4976777;28;20022;-85
2023/12/15 04:43:21;;;;;;;16.63;6.57;;;;;;;5.76;100.00;102933.44;4993860;28;20027;-84
2023/12/15 04:45:46;;;;;;;11.97;5.50;;;;;;;5.67;100.00;102918.53;4996051;28;20023;-85
2023/12/15 04:48:14;;;;;;;12.77;5.03;;;;;;;5.71;100.00;102923.84;4995741;28;20542;-85
2023/12/15 04:50:57;;;;;;;11.77;5.15;;;;;;;5.70;100.00;102910.88;4995221;28;20125;-85
2023/12/15 04:53:23;;;;;;;13.85;5.35;;;;;;;5.84;100.00;102938.06;4995833;28;20482;-85
2023/12/15 04:55:48;;;;;;;11.87;4.90;;;;;;;5.74;100.00;102924.78;4996030;28;20022;-85
2023/12/15 04:58:23;;;;;;;12.17;5.00;;;;;;;5.69;100.00;102919.44;4994991;28;20022;-85
2023/12/15 05:00:51;;;;;;;12.00;5.20;;;;;;;5.78;100.00;102942.09;4992714;28;20121;-85
2023/12/15 05:03:16;;;;;;;17.75;7.22;;;;;;;5.80;100.00;102946.50;4981353;28;20031;-85
2023/12/15 05:05:43;;;;;;;16.10;6.43;;;;;;;5.76;100.00;102933.44;4975326;28;20625;-85
2023/12/15 05:08:08;;;;;;;;;;;;;;;5.88;100.00;102954.53;4977045;28;20026;-85
2023/12/15 05:10:40;;;;;;;20.63;8.60;;;;;;;5.76;100.00;102939.47;4975999;28;19956;-85
2023/12/15 05:13:05;;;;;;;20.95;8.80;;;;;;;5.76;100.00;102936.91;4975576;28;20062;-85
2023/12/15 05:15:30;;;;;;;21.17;9.43;;;;;;;5.85;100.00;102960.44;4975888;28;20055;-86
2023/12/15 05:18:10;;;;;;;19.48;8.07;;;;;;;5.81;100.00;102948.25;4976071;28;20102;-85
2023/12/15 05:20:48;;;;;;;18.13;7.85;;;;;;;5.73;100.00;102934.22;4975221;28;20482;-85
2023/12/15 05:23:22;;;;;;;18.88;7.63;;;;;;;5.77;100.00;102945.50;4975850;28;20027;-85
2023/12/15 05:25:48;;;;;;;17.27;6.68;;;;;;;5.78;100.00;102950.72;4974245;28;20042;-85
2023/12/15 05:28:13;;;;;;;19.40;7.80;;;;;;;5.86;100.00;102956.16;4976087;28;20078;-85
2023/12/15 05:30:53;;;;;;;21.15;9.20;;;;;;;5.77;100.00;102953.22;4975373;28;20019;-85
2023/12/15 05:33:33;;;;;;;21.30;9.05;;;;;;;5.80;100.00;102958.50;4956058;29;20062;-85
2023/12/15 05:35:58;;;;;;;22.23;10.13;;;;;;;5.93;100.00;102983.03;4957104;29;20036;-85
2023/12/15 05:38:24;;;;;;;21.20;9.60;;;;;;;5.87;100.00;102976.84;4956453;29;20037;-85
2023/12/15 05:40:52;;;;;;;20.77;9.37;;;;;;;5.92;100.00;102989.03;4955698;29;20063;-84
2023/12/15 05:43:21;;;;;;;21.13;9.55;;;;;;;5.82;100.00;102975.78;4956757;29;20037;-85
2023/12/15 05:45:46;;;;;;;20.42;8.95;;;;;;;5.82;100.00;102986.09;4956496;29;20110;-85
2023/12/15 05:48:15;;;;;;;24.03;10.33;;;;;;;5.94;100.00;103000.28;4955979;29;20114;-85
2023/12/15 05:50:43;;;;;;;21.98;9.70;;;;;;;5.87;100.00;102994.00;4956950;29;20031;-85
2023/12/15 05:53:18;;;;;;;22.70;9.45;;;;;;;5.91;100.00;103005.34;4956706;29;20067;-85
2023/12/15 05:55:53;;;;;;;24.25;10.63;;;;;;;5.96;100.00;103007.28;4969277;28;20038;-85
2023/12/15 05:58:34;;;;;;;21.75;9.40;;;;;;;5.99;100.00;103009.06;4975787;28;20451;-85
2023/12/15 06:01:02;;;;;;;19.98;8.60;;;;;;;5.90;100.00;102986.41;4975337;28;20031;-85
2023/12/15 06:03:33;;;;;;;21.83;9.65;;;;;;;5.98;100.00;103008.19;4975834;28;20038;-85
2023/12/15 06:06:02;;;;;;;22.75;10.82;;;;;;;5.91;100.00;102995.03;4975540;28;20030;-85
2023/12/15 06:08:39;;;;;;;22.23;10.85;;;;;;;5.98;100.00;103007.31;4974955;28;20468;-85
2023/12/15 06:11:17;;;;;;;22.95;10.55;;;;;;;5.98;100.00;103005.59;4975741;28;20066;-85
2023/12/15 06:13:43;;;;;;;22.85;10.18;;;;;;;5.97;100.00;102996.09;4975679;28;20031;-85
2023/12/15 06:16:16;;;;;;;20.00;8.47;;;;;;;6.03;100.00;103016.13;4974553;28;20435;-85
2023/12/15 06:18:44;;;;;;;20.52;9.05;;;;;;;6.06;100.00;103023.97;4974909;28;20062;-85
2023/12/15 06:21:19;;;;;;;18.33;7.63;;;;;;;6.07;100.00;103020.59;4975313;28;20031;-85
2023/12/15 06:23:48;;;;;;;17.20;6.88;;;;;;;6.11;100.00;103029.31;4960910;28;20115;-85
2023/12/15 06:26:20;;;;;;;15.18;6.13;;;;;;;6.08;100.00;103012.03;4955504;28;20031;-85
2023/12/15 06:28:46;;;;;;;13.90;5.63;;;;;;;6.15;100.00;103026.03;4955877;29;20023;-85
2023/12/15 06:31:12;;;;;;;11.15;5.07;;;;;;;6.16;100.00;103038.13;4957850;28;20035;-85
2023/12/15 06:33:38;;;;;;;13.13;5.40;;;;;;;6.14;100.00;103038.03;4975054;28;20034;-84
2023/12/15 06:36:03;;;;;;;10.63;4.53;;;;;;;6.19;100.00;103048.56;4974450;28;20031;-84
2023/12/15 06:38:35;;;;;;;10.68;4.38;;;;;;;6.06;100.00;103031.72;4974938;28;20023;-85
2023/12/15 06:41:00;;;;;;;11.82;4.75;;;;;;;6.20;100.00;103054.56;4975076;28;20054;-85
2023/12/15 06:43:28;;;;;;;9.83;4.37;;;;;;;6.07;100.00;103028.31;4973780;28;20022;-85
2023/12/15 06:45:54;;;;;;;7.15;3.55;;;;;;;6.09;100.00;103031.84;4974619;28;20015;-85
2023/12/15 06:48:19;;;;;;;7.33;3.60;;;;;;;6.15;100.00;103041.50;4974538;28;20026;-85
2023/12/15 06:51:05;;;;;;;12.53;4.70;;;;;;;6.23;100.00;103057.28;4974181;28;20033;-84
2023/12/15 06:53:45;;;;;;;9.98;4.22;;;;;;;6.18;100.00;103051.94;4983014;28;20501;-84
2023/12/15 06:56:11;;;;;;;16.17;6.68;;;;;;;6.22;100.00;103053.81;4985171;28;20047;-84
2023/12/15 06:58:36;;;;;;;14.87;5.63;;;;;;;6.14;100.00;103045.78;4986586;28;20061;-85
2023/12/15 07:01:11;;;;;;;14.63;5.63;;;;;;;6.11;100.00;103047.34;4988932;28;20031;-84
2023/12/15 07:03:39;;;;;;;14.75;5.65;;;;;;;6.23;100.00;103076.19;4974445;28;20025;-83
2023/12/15 07:06:05;;;;;;;16.80;6.32;;;;;;;6.23;100.00;103075.34;4982639;28;20045;-87
2023/12/15 07:08:30;;;;;;;17.33;6.60;;;;;;;6.18;100.00;103072.59;4993781;28;20097;-84
2023/12/15 07:10:55;;;;;;;15.00;5.88;;;;;;;6.18;100.00;103077.75;4993741;28;20497;-85
2023/12/15 07:13:26;;;;;;;14.03;5.73;;;;;;;6.15;100.00;103069.88;4993367;28;20096;-85
2023/12/15 07:15:52;;;;;;;14.60;5.57;;;;;;;6.26;100.00;103096.97;4993501;28;20080;-85
2023/12/15 07:18:18;;;;;;;12.77;5.10;;;;;;;6.23;100.00;103091.66;4983650;28;20031;-84
2023/12/15 07:20:43;;;;;;;11.00;4.55;;;;;;;6.28;100.00;103100.47;4974093;28;20026;-85
2023/12/15 07:23:08;;;;;;;9.70;4.47;;;;;;;6.28;100.00;103104.75;4974325;28;20034;-85
2023/12/15 07:25:34;;;;;;;9.57;4.50;;;;;;;6.28;100.00;103097.91;4973380;28;20053;-85
2023/12/15 07:27:59;;;;;;;10.17;4.30;;;;;;;6.28;100.00;103097.00;4974863;28;20019;-85
2023/12/15 07:30:25;;;;;;;13.40;5.23;;;;;;;6.27;100.00;103103.88;4974655;28;20027;-85
2023/12/15 07:32:50;;;;;;;16.40;6.47;;;;;;;6.27;100.00;103111.63;4973726;28;20062;-85
2023/12/15 07:35:16;;;;;;;16.63;6.47;;;;;;;6.30;100.00;103109.16;4974729;28;20023;-84
2023/12/15 07:37:47;;;;;;;14.83;6.23;;;;;;;6.31;100.00;103108.31;4975764;28;20023;-85
2023/12/15 07:40:12;;;;;;;14.13;5.80;;;;;;;6.26;100.00;103112.44;4977879;28;20045;-85
2023/12/15 07:42:38;;;;;;;12.50;4.80;;;;;;;6.33;100.00;103132.47;4997530;28;20035;-85
2023/12/15 07:45:03;;;;;;;14.27;5.50;;;;;;;6.32;100.00;103129.84;4997202;28;20050;-85
2023/12/15 07:47:29;;;;;;;11.95;4.75;;;;;;;6.31;100.00;103128.94;4978201;28;20025;-85
2023/12/15 07:49:54;;;;;;;14.23;5.68;;;;;;;6.33;100.00;103119.56;4982456;28;20471;-85
2023/12/15 07:52:22;;;;;;;17.85;6.80;;;;;;;6.33;100.00;103122.16;4995498;28;20026;-85
2023/12/15 07:54:47;;;;;;;16.38;6.35;;;;;;;6.34;100.00;103133.38;4986537;28;20103;-85
2023/12/15 07:57:13;;;;;;;14.27;5.50;;;;;;;6.36;100.00;103133.41;4986476;28;20449;-85
2023/12/15 07:59:38;;;;;;;17.83;7.07;;;;;;;6.33;100.00;103137.63;4996992;28;20587;-85
2023/12/15 08:02:04;;;;;;;17.07;7.00;;;;;;;6.37;100.00;103145.50;4995162;28;20030;-85
2023/12/15 08:04:29;;;;;;;16.92;6.82;;;;;;;6.33;100.00;103135.06;4984022;28;20027;-84
2023/12/15 08:06:54;;;;;;;15.03;5.97;;;;;;;6.36;100.00;103146.31;4997422;28;20045;-84
2023/12/15 08:09:19;;;;;;;16.30;6.35;;;;;;;6.36;100.00;103154.91;4988590;28;20027;-82
2023/12/15 08:11:45;;;;;;;16.13;6.77;;;;;;;6.39;100.00;103152.47;4977505;28;20027;-86
2023/12/15 08:14:11;;;;;;;16.77;6.50;;;;;;;6.40;100.00;103156.81;4977853;28;20023;-86
2023/12/15 08:16:36;;;;;;;15.90;6.23;;;;;;;6.42;100.00;103162.00;4977156;28;20187;-84
2023/12/15 08:19:06;;;;;;;19.50;7.70;;;;;;;6.38;100.00;103163.59;4977142;28;20027;-84
2023/12/15 08:21:31;;;;;;;18.58;7.18;;;;;;;6.43;100.00;103180.16;4983927;28;20359;-84
2023/12/15 08:23:57;;;;;;;18.67;8.00;;;;;;;6.40;100.00;103176.56;4997039;28;20072;-84
2023/12/15 08:26:27;;;;;;;19.73;8.30;;;;;;;6.45;100.00;103199.16;4996797;28;20440;-84
2023/12/15 08:28:56;;;;;;;16.92;7.07;;;;;;;6.44;100.00;103189.66;4995351;28;20041;-84
2023/12/15 08:31:23;;;;;;;19.48;7.78;;;;;;;6.45;100.00;103191.41;4996109;28;20042;-84
2023/12/15 08:33:49;;;;;;;18.73;7.53;;;;;;;6.46;100.00;103203.50;5038594;23;20490;-85
2023/12/15 08:36:15;;;;;;;17.20;6.43;;;;;;;6.44;100.00;103210.28;4995984;28;20054;-84
2023/12/15 08:38:41;;;;;;;18.93;7.83;;;;;;;6.49;100.00;103223.38;4996951;28;20448;-85
2023/12/15 08:41:06;;;;;;;16.40;6.53;;;;;;;6.46;100.00;103215.50;4996225;28;20041;-84
2023/12/15 08:43:32;;;;;;;18.00;6.85;;;;;;;6.49;100.00;103226.81;5005866;28;20363;-85
2023/12/15 08:45:57;;;;;;;18.70;6.90;;;;;;;6.50;100.00;103235.47;5015412;28;20529;-84
2023/12/15 08:48:23;;;;;;;14.63;6.17;;;;;;;6.52;100.00;103231.25;5006113;28;20026;-86
2023/12/15 08:50:49;;;;;;;14.87;5.50;;;;;;;6.46;100.00;103225.81;4994640;28;20087;-85
2023/12/15 08:53:16;;;;;;;12.60;5.20;;;;;;;6.55;100.00;103239.09;5012582;28;20030;-85
2023/12/15 08:55:41;;;;;;;12.38;4.90;;;;;;;6.58;100.00;103243.50;5016142;28;20398;-83
2023/12/15 08:58:07;;;;;;;11.10;4.60;;;;;;;6.60;100.00;103236.69;5015600;28;20034;-84
2023/12/15 09:00:32;;;;;;;11.37;4.53;;;;;;;6.61;100.00;103247.09;5016004;28;20367;-84
2023/12/15 09:02:57;;;;;;;14.70;5.73;;;;;;;6.65;100.00;103248.94;5016165;28;20068;-84
2023/12/15 09:05:23;;;;;;;17.30;6.67;;;;;;;6.67;100.00;103258.44;5021856;23;20026;-83
2023/12/15 09:07:52;;;;;;;12.85;5.35;;;;;;;6.68;100.00;103248.22;4995038;28;20380;-84
2023/12/15 09:10:19;;;;;;;15.48;5.68;;;;;;;6.71;100.00;103252.59;4996132;28;20030;-84
2023/12/15 09:12:45;;;;;;;12.77;5.35;;;;;;;6.69;100.00;103251.66;4995324;28;20022;-84
2023/12/15 09:15:13;;;;;;;14.57;5.30;;;;;;;6.73;100.00;103259.59;4994323;28;20018;-84
2023/12/15 09:17:46;;;;;;;14.20;5.45;;;;;;;6.76;100.00;103261.41;4974859;28;20121;-84
2023/12/15 09:20:14;;;;;;;12.45;4.95;;;;;;;6.77;100.00;103263.16;4976059;28;20081;-84
2023/12/15 09:22:44;;;;;;;12.63;5.00;;;;;;;6.78;100.00;103268.41;4976653;28;20074;-84
2023/12/15 09:25:09;;;;;;;12.07;5.20;;;;;;;6.80;100.00;103274.50;4975772;28;20054;-84
2023/12/15 09:27:34;;;;;;;11.13;4.70;;;;;;;6.81;100.00;103275.38;4975735;28;20026;-84
2023/12/15 09:30:00;;;;;;;10.73;4.43;;;;;;;6.87;100.00;103285.06;4976384;28;20491;-84
2023/12/15 09:32:48;;;;;;;9.35;4.10;;;;;;;6.89;100.00;103283.44;4975308;28;20058;-84
2023/12/15 09:35:17;;;;;;;9.57;4.10;;;;;;;6.95;100.00;103288.81;4976254;28;20034;-84
2023/12/15 09:37:42;;;;;;;10.05;4.75;;;;;;;6.93;100.00;103293.03;4976281;28;20440;-84
2023/12/15 09:40:08;;;;;;;7.83;3.80;;;;;;;6.93;100.00;103293.94;4975742;28;20035;-84
2023/12/15 09:42:37;;;;;;;9.35;3.90;;;;;;;7.00;100.00;103305.38;4975497;28;20368;-83
2023/12/15 09:45:02;;;;;;;11.25;4.40;;;;;;;7.00;100.00;103315.72;4991835;28;20058;-86
2023/12/15 09:47:28;;;;;;;10.00;4.20;;;;;;;7.05;100.00;103326.22;4994320;28;20033;-83
2023/12/15 09:50:01;;;;;;;10.13;4.30;;;;;;;7.04;100.00;103327.91;4986465;28;20028;-84
2023/12/15 09:52:29;;;;;;;10.70;4.32;;;;;;;7.04;100.00;103339.94;4983704;28;20026;-84
2023/12/15 09:54:54;;;;;;;8.93;3.90;;;;;;;7.02;100.00;103339.91;4975063;28;20117;-86
2023/12/15 09:57:19;;;;;;;12.37;5.20;;;;;;;7.06;100.00;103358.97;4975790;28;20081;-85
2023/12/15 09:59:45;;;;;;;13.85;5.35;;;;;;;7.07;100.00;103358.16;4975584;28;20025;-86
2023/12/15 10:02:10;;;;;;;11.27;4.70;;;;;;;7.07;100.00;103356.44;4973934;28;20031;-86
2023/12/15 10:04:35;;;;;;;12.90;5.37;;;;;;;7.08;100.00;103352.16;4975560;28;20109;-86
2023/12/15 10:07:02;;;;;;;10.87;4.63;;;;;;;7.11;100.00;103360.00;4974479;28;20125;-85
2023/12/15 10:09:30;;;;;;;11.38;4.40;;;;;;;7.10;100.00;103358.25;4975303;28;20031;-86
2023/12/15 10:11:58;;;;;;;10.45;4.20;;;;;;;7.16;100.00;103362.78;4974583;28;20085;-86
2023/12/15 10:14:42;;;;;;;10.10;4.20;;;;;;;7.10;100.00;103359.16;4985634;28;20034;-85
2023/12/15 10:17:11;;;;;;;8.77;3.63;;;;;;;7.18;100.00;103374.97;4994814;28;20138;-87
2023/12/15 10:23:06;;;;;;;10.55;4.22;;;;;;;7.08;100.00;103362.50;4978530;28;20037;-87
2023/12/15 10:25:48;;;;;;;11.38;4.60;;;;;;;7.15;100.00;103376.53;4994777;28;20025;-86
2023/12/15 10:28:18;;;;;;;11.25;4.57;;;;;;;7.09;100.00;103377.19;4994431;28;20050;-87
2023/12/15 10:30:43;;;;;;;12.02;4.57;;;;;;;7.16;100.00;103379.19;5017830;23;20061;-87
2023/12/15 10:33:08;;;;;;;11.60;4.70;;;;;;;7.13;100.00;103373.88;5014986;28;20470;-88
2023/12/15 10:35:46;;;;;;;12.23;5.07;;;;;;;7.16;100.00;103393.78;5014110;28;20040;-87
2023/12/15 10:38:30;;;;;;;11.10;4.60;;;;;;;7.19;100.00;103402.56;5014326;28;20363;-87
2023/12/15 10:41:10;;;;;;;11.82;4.53;;;;;;;7.19;100.00;103393.91;5014243;28;20036;-87
2023/12/15 10:43:53;;;;;;;12.07;4.55;;;;;;;7.15;100.00;103386.88;5014150;28;20026;-87
2023/12/15 10:46:28;;;;;;;11.32;4.38;;;;;;;7.15;100.00;103404.94;5014688;28;20032;-87
2023/12/15 10:49:10;;;;;;;7.72;3.75;;;;;;;7.22;100.00;103405.22;5014350;28;20026;-88
2023/12/15 10:51:40;;;;;;;9.57;4.00;;;;;;;7.29;100.00;103421.84;5014350;28;20022;-87
2023/12/15 10:54:08;;;;;;;12.57;5.00;;;;;;;7.23;100.00;103419.91;5014155;28;20022;-87
2023/12/15 10:56:36;;;;;;;11.68;4.60;;;;;;;7.22;100.00;103425.91;5013311;28;20022;-85
2023/12/15 10:59:02;;;;;;;11.25;4.50;;;;;;;7.32;100.00;103434.91;5013960;28;20131;-87
2023/12/15 11:01:30;;;;;;;10.07;4.17;;;;;;;7.32;100.00;103434.03;5028386;23;20081;-87
2023/12/15 11:03:56;;;;;;;10.27;4.22;;;;;;;7.33;100.00;103443.53;5013067;28;20041;-87
2023/12/15 11:06:30;;;;;;;12.87;5.10;;;;;;;7.35;100.00;103454.81;5013922;28;20022;-87
2023/12/15 11:09:04;;;;;;;13.13;5.03;;;;;;;7.33;100.00;103459.03;5012850;28;20105;-86
2023/12/15 11:11:30;;;;;;;13.05;5.18;;;;;;;7.34;100.00;103461.69;5011024;28;20133;-87
2023/12/15 11:14:04;;;;;;;11.35;4.88;;;;;;;7.36;100.00;103467.81;5012414;28;20041;-85
2023/12/15 11:16:35;;;;;;;11.48;4.85;;;;;;;7.37;100.00;103464.41;5012210;28;20173;-86
2023/12/15 11:19:01;;;;;;;15.43;6.32;;;;;;;7.36;100.00;103462.63;5013401;28;20033;-87
2023/12/15 11:21:27;;;;;;;14.83;5.93;;;;;;;7.36;100.00;103464.31;5013943;28;20026;-86
2023/12/15 11:24:00;;;;;;;13.27;5.28;;;;;;;7.38;100.00;103467.84;5004802;28;20027;-82
2023/12/15 11:26:48;;;;;;;14.15;5.82;;;;;;;7.36;100.00;103465.22;4990217;28;20038;-84
2023/12/15 11:29:19;;;;;;;12.80;5.20;;;;;;;7.33;100.00;103464.19;4962405;28;20034;-87
2023/12/15 11:32:04;;;;;;;15.15;6.20;;;;;;;7.42;100.00;103459.41;4993529;28;20050;-87